createdAt,value
2017-11-01T00:00:00.234Z,32.70
2017-11-01T00:01:00.207Z,45.30
2017-11-01T00:02:00.181Z,58.70
2017-11-01T00:03:00.152Z,39.80
2017-11-01T00:04:00.123Z,43.00
2017-11-01T00:05:00.100Z,45.40
2017-11-01T00:06:00.072Z,49.60
2017-11-01T00:07:00.042Z,44.70
2017-11-01T00:08:00.021Z,59.10
2017-11-01T00:08:59.989Z,70.30
2017-11-01T00:09:59.961Z,46.30
2017-11-01T00:10:59.940Z,60.10
2017-11-01T00:11:59.906Z,51.50
2017-11-01T00:12:59.888Z,54.40
2017-11-01T00:13:59.854Z,51.70
2017-11-01T00:14:59.831Z,57.20
2017-11-01T00:15:59.800Z,64.50
2017-11-01T00:16:59.771Z,65.90
2017-11-01T00:17:59.746Z,58.00
2017-11-01T00:18:59.718Z,40.20
2017-11-01T00:19:59.696Z,47.40
2017-11-01T00:20:59.664Z,36.70
2017-11-01T00:21:59.635Z,55.90
2017-11-01T00:22:59.616Z,49.30
2017-11-01T00:23:59.587Z,56.30
2017-11-01T00:24:59.553Z,60.80
2017-11-01T00:25:59.544Z,60.40
2017-11-01T00:26:59.754Z,42.40
2017-11-01T00:27:59.481Z,64.90
2017-11-01T00:28:59.448Z,68.30
2017-11-01T00:29:59.429Z,58.70
2017-11-01T00:30:59.392Z,50.50
2017-11-01T00:31:59.366Z,82.50
2017-11-01T00:32:59.351Z,62.10
2017-11-01T00:33:59.316Z,65.00
2017-11-01T00:34:59.294Z,66.70
2017-11-01T00:35:59.259Z,52.00
2017-11-01T00:36:59.235Z,60.20
2017-11-01T00:37:59.207Z,81.00
2017-11-01T00:38:59.181Z,40.30
2017-11-01T00:39:59.156Z,63.50
2017-11-01T00:40:59.127Z,52.50
2017-11-01T00:41:59.132Z,62.60
2017-11-01T00:42:59.077Z,58.20
2017-11-01T00:43:59.049Z,52.10
2017-11-01T00:44:59.368Z,63.30
2017-11-01T00:45:58.996Z,61.50
2017-11-01T00:46:58.966Z,39.50
2017-11-01T00:47:58.936Z,66.30
2017-11-01T00:48:58.912Z,58.30
2017-11-01T00:49:58.880Z,60.10
2017-11-01T00:50:59.114Z,61.40
2017-11-01T00:51:58.834Z,54.20
2017-11-01T00:52:58.802Z,51.80
2017-11-01T00:53:58.775Z,62.40
2017-11-01T00:54:58.759Z,67.20
2017-11-01T00:55:58.726Z,54.50
2017-11-01T00:56:58.704Z,30.60
2017-11-01T00:57:58.671Z,48.40
2017-11-01T00:58:58.647Z,49.60
2017-11-01T00:59:58.630Z,56.90
2017-11-01T01:00:58.596Z,60.60
2017-11-01T01:01:58.567Z,72.30
2017-11-01T01:02:58.537Z,66.70
2017-11-01T01:03:58.510Z,66.60
2017-11-01T01:04:58.485Z,79.50
2017-11-01T01:05:58.454Z,61.10
2017-11-01T01:06:58.427Z,75.10
2017-11-01T01:07:58.399Z,74.80
2017-11-01T01:08:58.370Z,60.10
2017-11-01T01:09:58.350Z,57.10
2017-11-01T01:10:58.322Z,68.40
2017-11-01T01:11:58.290Z,76.30
2017-11-01T01:12:58.268Z,69.20
2017-11-01T01:13:58.240Z,56.30
2017-11-01T01:14:58.212Z,77.40
2017-11-01T01:15:58.187Z,67.00
2017-11-01T01:16:58.158Z,70.50
2017-11-01T01:17:58.134Z,56.70
2017-11-01T01:18:58.103Z,65.60
2017-11-01T01:19:58.074Z,68.00
2017-11-01T01:20:58.348Z,75.60
2017-11-01T01:21:58.025Z,42.40
2017-11-01T01:22:57.999Z,65.30
2017-11-01T01:23:57.969Z,64.10
2017-11-01T01:24:57.943Z,59.80
2017-11-01T01:25:57.916Z,56.30
2017-11-01T01:26:57.897Z,55.10
2017-11-01T01:27:57.862Z,58.00
2017-11-01T01:28:57.832Z,68.80
2017-11-01T01:29:57.816Z,45.80
2017-11-01T01:30:57.782Z,60.70
2017-11-01T01:31:57.761Z,53.10
2017-11-01T01:32:57.724Z,47.20
2017-11-01T01:33:57.700Z,58.20
2017-11-01T01:34:57.681Z,52.70
2017-11-01T01:35:57.651Z,55.00
2017-11-01T01:36:57.623Z,36.00
2017-11-01T01:37:57.593Z,65.70
2017-11-01T01:38:57.563Z,47.50
2017-11-01T01:39:57.535Z,54.80
2017-11-01T01:40:57.509Z,66.50
2017-11-01T01:41:57.488Z,43.80
2017-11-01T01:42:57.456Z,29.10
2017-11-01T01:43:57.437Z,33.70
2017-11-01T01:44:57.769Z,45.10
2017-11-01T01:45:57.381Z,63.10
2017-11-01T01:46:57.350Z,49.70
2017-11-01T01:47:57.328Z,46.20
2017-11-01T01:48:57.300Z,45.40
2017-11-01T01:49:57.268Z,41.90
2017-11-01T01:50:57.248Z,47.00
2017-11-01T01:51:57.214Z,64.70
2017-11-01T01:52:57.219Z,56.40
2017-11-01T01:53:57.163Z,61.30
2017-11-01T01:54:57.132Z,54.30
2017-11-01T01:55:57.107Z,60.90
2017-11-01T01:56:57.083Z,70.50
2017-11-01T01:57:57.063Z,76.10
2017-11-01T01:58:57.036Z,71.70
2017-11-01T01:59:57.003Z,59.80
2017-11-01T02:00:56.978Z,65.00
2017-11-01T02:01:57.200Z,54.80
2017-11-01T02:02:56.928Z,46.40
2017-11-01T02:03:56.894Z,49.20
2017-11-01T02:04:56.869Z,56.80
2017-11-01T02:05:56.845Z,70.10
2017-11-01T02:06:56.812Z,78.50
2017-11-01T02:07:56.787Z,66.80
2017-11-01T02:08:56.757Z,53.60
2017-11-01T02:09:56.733Z,61.50
2017-11-01T02:10:56.710Z,75.40
2017-11-01T02:11:56.675Z,83.90
2017-11-01T02:12:56.651Z,65.30
2017-11-01T02:13:56.621Z,70.20
2017-11-01T02:14:56.594Z,80.30
2017-11-01T02:15:56.570Z,79.30
2017-11-01T02:16:56.546Z,64.40
2017-11-01T02:17:56.515Z,81.60
2017-11-01T02:18:56.516Z,81.80
2017-11-01T02:19:56.968Z,83.20
2017-11-01T02:20:56.440Z,96.50
2017-11-01T02:21:56.413Z,53.20
2017-11-01T02:22:56.385Z,49.70
2017-11-01T02:23:56.363Z,81.10
2017-11-01T02:24:56.337Z,72.60
2017-11-01T02:25:56.316Z,84.80
2017-11-01T02:26:56.277Z,84.60
2017-11-01T02:27:56.250Z,51.20
2017-11-01T02:28:56.232Z,71.90
2017-11-01T02:29:56.201Z,87.10
2017-11-01T02:30:56.172Z,63.00
2017-11-01T02:31:56.149Z,44.20
2017-11-01T02:32:56.112Z,56.80
2017-11-01T02:33:56.093Z,88.20
2017-11-01T02:34:56.058Z,90.90
2017-11-01T02:35:56.041Z,71.80
2017-11-01T02:36:56.019Z,106.40
2017-11-01T02:37:56.336Z,107.60
2017-11-01T02:38:55.955Z,81.90
2017-11-01T02:39:55.925Z,71.60
2017-11-01T02:40:55.900Z,97.80
2017-11-01T02:41:55.871Z,80.60
2017-11-01T02:42:55.848Z,113.40
2017-11-01T02:43:55.823Z,61.80
2017-11-01T02:44:55.799Z,96.10
2017-11-01T02:45:55.774Z,85.40
2017-11-01T02:46:55.741Z,90.40
2017-11-01T02:47:55.716Z,118.20
2017-11-01T02:48:55.943Z,112.60
2017-11-01T02:49:55.658Z,84.90
2017-11-01T02:50:55.633Z,89.50
2017-11-01T02:51:55.606Z,105.40
2017-11-01T02:52:55.579Z,89.90
2017-11-01T02:53:55.554Z,81.20
2017-11-01T02:54:55.788Z,101.80
2017-11-01T02:55:55.502Z,94.60
2017-11-01T02:56:55.478Z,81.70
2017-11-01T02:57:55.444Z,66.70
2017-11-01T02:58:55.419Z,52.10
2017-11-01T02:59:55.398Z,62.30
2017-11-01T03:00:55.368Z,86.20
2017-11-01T03:01:55.341Z,100.10
2017-11-01T03:02:55.309Z,55.20
2017-11-01T03:03:55.284Z,104.30
2017-11-01T03:04:55.257Z,122.90
2017-11-01T03:05:55.240Z,79.30
2017-11-01T03:06:55.559Z,109.00
2017-11-01T03:07:55.182Z,106.50
2017-11-01T03:08:55.160Z,119.40
2017-11-01T03:09:55.132Z,105.30
2017-11-01T03:10:55.096Z,126.20
2017-11-01T03:11:55.073Z,101.20
2017-11-01T03:12:55.050Z,125.00
2017-11-01T03:13:55.020Z,100.40
2017-11-01T03:14:54.997Z,103.50
2017-11-01T03:15:54.974Z,109.80
2017-11-01T03:16:54.937Z,121.40
2017-11-01T03:17:55.215Z,116.80
2017-11-01T03:18:54.884Z,60.80
2017-11-01T03:19:54.860Z,112.50
2017-11-01T03:20:54.842Z,83.70
2017-11-01T03:21:54.804Z,104.90
2017-11-01T03:22:54.782Z,126.50
2017-11-01T03:23:55.058Z,129.60
2017-11-01T03:24:54.729Z,126.20
2017-11-01T03:25:54.698Z,128.00
2017-11-01T03:26:54.677Z,106.90
2017-11-01T03:27:54.656Z,136.60
2017-11-01T03:28:54.625Z,68.80
2017-11-01T03:29:54.600Z,91.90
2017-11-01T03:30:54.566Z,104.20
2017-11-01T03:31:54.539Z,126.40
2017-11-01T03:32:54.521Z,135.10
2017-11-01T03:33:54.491Z,113.80
2017-11-01T03:34:54.469Z,126.70
2017-11-01T03:35:54.682Z,127.00
2017-11-01T03:36:54.408Z,121.70
2017-11-01T03:37:54.381Z,145.30
2017-11-01T03:38:54.353Z,112.60
2017-11-01T03:39:54.327Z,128.70
2017-11-01T03:40:54.307Z,120.10
2017-11-01T03:41:54.578Z,112.70
2017-11-01T03:42:54.251Z,133.70
2017-11-01T03:43:54.225Z,119.80
2017-11-01T03:44:54.201Z,106.80
2017-11-01T03:45:54.166Z,128.20
2017-11-01T03:46:54.143Z,143.00
2017-11-01T03:47:54.618Z,145.30
2017-11-01T03:48:54.093Z,107.70
2017-11-01T03:49:54.067Z,128.40
2017-11-01T03:50:54.038Z,129.20
2017-11-01T03:51:54.013Z,102.60
2017-11-01T03:52:53.986Z,120.20
2017-11-01T03:53:53.967Z,95.90
2017-11-01T03:54:53.930Z,112.60
2017-11-01T03:55:53.906Z,118.40
2017-11-01T03:56:53.880Z,100.90
2017-11-01T03:57:53.860Z,123.40
2017-11-01T03:58:53.827Z,127.50
2017-11-01T03:59:53.799Z,113.30
2017-11-01T04:00:53.773Z,133.80
2017-11-01T04:01:53.746Z,149.20
2017-11-01T04:02:53.719Z,117.50
2017-11-01T04:03:53.698Z,131.70
2017-11-01T04:04:53.922Z,95.50
2017-11-01T04:05:53.637Z,114.20
2017-11-01T04:06:53.622Z,122.10
2017-11-01T04:07:53.594Z,116.90
2017-11-01T04:08:53.569Z,120.70
2017-11-01T04:09:53.534Z,103.20
2017-11-01T04:10:53.761Z,98.70
2017-11-01T04:11:53.479Z,103.90
2017-11-01T04:12:53.458Z,146.30
2017-11-01T04:13:53.430Z,114.20
2017-11-01T04:14:53.402Z,147.50
2017-11-01T04:15:53.376Z,124.80
2017-11-01T04:16:53.359Z,133.50
2017-11-01T04:17:53.324Z,143.90
2017-11-01T04:18:53.297Z,149.00
2017-11-01T04:19:53.274Z,122.30
2017-11-01T04:20:53.254Z,148.90
2017-11-01T04:21:53.221Z,146.50
2017-11-01T04:22:53.189Z,147.20
2017-11-01T04:23:53.163Z,142.30
2017-11-01T04:24:53.143Z,135.30
2017-11-01T04:25:53.110Z,146.60
2017-11-01T04:26:53.086Z,159.40
2017-11-01T04:27:53.058Z,148.10
2017-11-01T04:28:53.332Z,114.30
2017-11-01T04:29:53.004Z,135.80
2017-11-01T04:30:52.979Z,135.60
2017-11-01T04:31:52.956Z,128.50
2017-11-01T04:32:52.929Z,139.80
2017-11-01T04:33:52.898Z,103.60
2017-11-01T04:34:53.126Z,129.20
2017-11-01T04:35:52.850Z,152.20
2017-11-01T04:36:52.824Z,124.60
2017-11-01T04:37:52.792Z,146.30
2017-11-01T04:38:52.769Z,151.90
2017-11-01T04:39:52.738Z,91.30
2017-11-01T04:40:52.715Z,116.30
2017-11-01T04:41:52.688Z,141.80
2017-11-01T04:42:52.667Z,144.40
2017-11-01T04:43:52.645Z,150.40
2017-11-01T04:44:52.608Z,138.40
2017-11-01T04:45:52.586Z,119.30
2017-11-01T04:46:53.158Z,152.70
2017-11-01T04:47:52.528Z,138.90
2017-11-01T04:48:52.507Z,139.10
2017-11-01T04:49:52.484Z,129.40
2017-11-01T04:50:52.449Z,94.40
2017-11-01T04:51:52.427Z,134.70
2017-11-01T04:52:52.402Z,115.20
2017-11-01T04:53:52.375Z,142.00
2017-11-01T04:54:52.347Z,145.90
2017-11-01T04:55:52.320Z,140.20
2017-11-01T04:56:52.294Z,133.70
2017-11-01T04:57:52.272Z,141.10
2017-11-01T04:58:52.491Z,125.60
2017-11-01T04:59:52.214Z,118.20
2017-11-01T05:00:52.203Z,144.60
2017-11-01T05:01:52.163Z,146.60
2017-11-01T05:02:52.141Z,96.70
2017-11-01T05:03:52.110Z,119.00
2017-11-01T05:04:52.085Z,91.10
2017-11-01T05:05:52.062Z,146.30
2017-11-01T05:06:52.032Z,109.00
2017-11-01T05:07:52.025Z,125.10
2017-11-01T05:08:51.980Z,124.80
2017-11-01T05:09:51.961Z,130.50
2017-11-01T05:10:51.926Z,139.20
2017-11-01T05:11:51.903Z,120.60
2017-11-01T05:12:51.878Z,140.00
2017-11-01T05:13:51.857Z,132.80
2017-11-01T05:14:51.821Z,130.20
2017-11-01T05:15:51.802Z,143.90
2017-11-01T05:16:51.768Z,147.00
2017-11-01T05:17:51.752Z,140.10
2017-11-01T05:18:51.718Z,116.80
2017-11-01T05:19:51.694Z,119.30
2017-11-01T05:20:51.665Z,133.50
2017-11-01T05:21:51.641Z,135.10
2017-11-01T05:22:51.611Z,128.70
2017-11-01T05:23:51.582Z,144.40
2017-11-01T05:24:51.557Z,123.70
2017-11-01T05:25:51.536Z,104.50
2017-11-01T05:26:51.510Z,130.30
2017-11-01T05:27:51.738Z,120.20
2017-11-01T05:28:51.453Z,99.60
2017-11-01T05:29:51.432Z,141.10
2017-11-01T05:30:51.408Z,145.90
2017-11-01T05:31:51.382Z,144.00
2017-11-01T05:32:51.349Z,139.60
2017-11-01T05:33:51.329Z,127.10
2017-11-01T05:34:51.299Z,154.80
2017-11-01T05:35:51.279Z,137.90
2017-11-01T05:36:51.247Z,122.10
2017-11-01T05:37:51.225Z,129.20
2017-11-01T05:38:51.197Z,142.20
2017-11-01T05:39:51.464Z,142.80
2017-11-01T05:40:51.141Z,131.40
2017-11-01T05:41:51.120Z,135.80
2017-11-01T05:42:51.090Z,144.80
2017-11-01T05:43:51.068Z,93.50
2017-11-01T05:44:51.036Z,122.60
2017-11-01T05:45:51.012Z,155.20
2017-11-01T05:46:50.980Z,117.10
2017-11-01T05:47:50.964Z,136.60
2017-11-01T05:48:50.936Z,124.40
2017-11-01T05:49:50.905Z,91.70
2017-11-01T05:50:51.132Z,117.80
2017-11-01T05:51:50.858Z,83.00
2017-11-01T05:52:50.835Z,108.70
2017-11-01T05:53:50.804Z,109.70
2017-11-01T05:54:50.775Z,93.00
2017-11-01T05:55:50.755Z,121.50
2017-11-01T05:56:50.975Z,108.10
2017-11-01T05:57:50.699Z,115.60
2017-11-01T05:58:50.671Z,106.10
2017-11-01T05:59:50.640Z,110.70
2017-11-01T06:00:50.624Z,107.80
2017-11-01T06:01:50.592Z,87.70
2017-11-01T06:02:50.577Z,116.80
2017-11-01T06:03:50.557Z,94.60
2017-11-01T06:04:50.515Z,100.50
2017-11-01T06:05:50.499Z,107.30
2017-11-01T06:06:50.471Z,96.80
2017-11-01T06:07:50.433Z,115.40
2017-11-01T06:08:50.418Z,127.60
2017-11-01T06:09:50.383Z,126.50
2017-11-01T06:10:50.353Z,114.80
2017-11-01T06:11:50.329Z,128.80
2017-11-01T06:12:50.301Z,126.00
2017-11-01T06:13:50.287Z,118.80
2017-11-01T06:14:50.499Z,113.00
2017-11-01T06:15:50.226Z,104.60
2017-11-01T06:16:50.205Z,98.60
2017-11-01T06:17:50.176Z,115.40
2017-11-01T06:18:50.150Z,115.20
2017-11-01T06:19:50.122Z,126.60
2017-11-01T06:20:50.096Z,130.00
2017-11-01T06:21:50.072Z,108.50
2017-11-01T06:22:50.045Z,112.50
2017-11-01T06:23:50.020Z,114.50
2017-11-01T06:24:49.988Z,106.00
2017-11-01T06:25:49.969Z,112.20
2017-11-01T06:26:49.940Z,113.80
2017-11-01T06:27:49.916Z,105.40
2017-11-01T06:28:49.886Z,91.00
2017-11-01T06:29:49.866Z,114.80
2017-11-01T06:30:49.834Z,88.20
2017-11-01T06:31:49.812Z,103.10
2017-11-01T06:32:49.783Z,81.50
2017-11-01T06:33:49.753Z,107.70
2017-11-01T06:34:49.726Z,83.30
2017-11-01T06:35:49.702Z,112.30
2017-11-01T06:36:49.683Z,115.10
2017-11-01T06:37:49.655Z,80.70
2017-11-01T06:38:49.622Z,111.00
2017-11-01T06:39:49.605Z,118.10
2017-11-01T06:40:49.577Z,117.40
2017-11-01T06:41:49.545Z,115.20
2017-11-01T06:42:49.521Z,118.40
2017-11-01T06:43:49.498Z,107.10
2017-11-01T06:44:49.467Z,105.70
2017-11-01T06:45:49.444Z,106.70
2017-11-01T06:46:49.419Z,123.80
2017-11-01T06:47:49.395Z,87.10
2017-11-01T06:48:49.375Z,90.50
2017-11-01T06:49:49.339Z,90.70
2017-11-01T06:50:49.321Z,101.60
2017-11-01T06:51:49.289Z,94.30
2017-11-01T06:52:49.257Z,109.80
2017-11-01T06:53:49.240Z,116.10
2017-11-01T06:54:49.218Z,100.70
2017-11-01T06:55:49.437Z,118.40
2017-11-01T06:56:49.158Z,98.60
2017-11-01T06:57:49.133Z,114.30
2017-11-01T06:58:49.110Z,100.60
2017-11-01T06:59:49.082Z,98.00
2017-11-01T07:00:49.050Z,104.30
2017-11-01T07:01:49.029Z,103.60
2017-11-01T07:02:49.002Z,110.50
2017-11-01T07:03:48.972Z,103.60
2017-11-01T07:04:48.946Z,102.60
2017-11-01T07:05:48.923Z,118.10
2017-11-01T07:06:48.902Z,111.30
2017-11-01T07:07:49.174Z,97.80
2017-11-01T07:08:48.854Z,77.30
2017-11-01T07:09:48.820Z,96.10
2017-11-01T07:10:48.796Z,86.10
2017-11-01T07:11:48.770Z,92.80
2017-11-01T07:12:48.744Z,98.30
2017-11-01T07:13:48.719Z,111.50
2017-11-01T07:14:48.691Z,100.10
2017-11-01T07:15:48.679Z,113.60
2017-11-01T07:16:48.641Z,84.60
2017-11-01T07:17:48.616Z,92.90
2017-11-01T07:18:48.587Z,109.10
2017-11-01T07:19:48.562Z,98.80
2017-11-01T07:20:48.535Z,103.40
2017-11-01T07:21:48.513Z,115.30
2017-11-01T07:22:48.483Z,124.30
2017-11-01T07:23:48.458Z,113.30
2017-11-01T07:24:48.428Z,120.80
2017-11-01T07:25:48.409Z,97.30
2017-11-01T07:26:48.382Z,119.90
2017-11-01T07:27:48.358Z,114.50
2017-11-01T07:28:48.328Z,117.20
2017-11-01T07:29:48.303Z,109.70
2017-11-01T07:30:48.284Z,102.00
2017-11-01T07:31:48.249Z,114.40
2017-11-01T07:32:48.225Z,105.80
2017-11-01T07:33:48.203Z,107.60
2017-11-01T07:34:48.168Z,109.50
2017-11-01T07:35:48.142Z,86.80
2017-11-01T07:36:48.132Z,77.90
2017-11-01T07:37:48.096Z,104.50
2017-11-01T07:38:48.071Z,96.60
2017-11-01T07:39:48.040Z,131.60
2017-11-01T07:40:48.023Z,127.00
2017-11-01T07:41:47.994Z,142.00
2017-11-01T07:42:48.269Z,120.80
2017-11-01T07:43:47.942Z,92.40
2017-11-01T07:44:47.922Z,122.00
2017-11-01T07:45:47.890Z,122.90
2017-11-01T07:46:47.861Z,115.60
2017-11-01T07:47:47.834Z,136.10
2017-11-01T07:48:47.815Z,125.20
2017-11-01T07:49:47.784Z,113.70
2017-11-01T07:50:47.756Z,150.50
2017-11-01T07:51:47.734Z,127.70
2017-11-01T07:52:47.708Z,125.60
2017-11-01T07:53:47.685Z,138.40
2017-11-01T07:54:47.664Z,125.10
2017-11-01T07:55:47.633Z,130.50
2017-11-01T07:56:47.612Z,134.40
2017-11-01T07:57:47.578Z,131.70
2017-11-01T07:58:47.552Z,118.80
2017-11-01T07:59:47.526Z,117.30
2017-11-01T08:00:47.499Z,92.70
2017-11-01T08:01:47.475Z,97.20
2017-11-01T08:02:47.451Z,126.00
2017-11-01T08:03:47.424Z,99.50
2017-11-01T08:04:47.402Z,105.90
2017-11-01T08:05:47.370Z,105.30
2017-11-01T08:06:47.344Z,108.60
2017-11-01T08:07:47.322Z,104.70
2017-11-01T08:08:47.299Z,92.40
2017-11-01T08:09:47.273Z,117.50
2017-11-01T08:10:47.244Z,98.30
2017-11-01T08:11:47.219Z,111.40
2017-11-01T08:12:47.194Z,112.90
2017-11-01T08:13:47.181Z,96.50
2017-11-01T08:14:47.144Z,107.40
2017-11-01T08:15:47.113Z,117.60
2017-11-01T08:16:47.101Z,111.30
2017-11-01T08:17:47.067Z,103.20
2017-11-01T08:18:47.044Z,107.50
2017-11-01T08:19:47.014Z,99.30
2017-11-01T08:20:46.990Z,99.00
2017-11-01T08:21:46.966Z,77.70
2017-11-01T08:22:46.937Z,97.60
2017-11-01T08:23:46.916Z,96.90
2017-11-01T08:24:46.882Z,89.20
2017-11-01T08:25:46.864Z,99.00
2017-11-01T08:26:46.836Z,90.80
2017-11-01T08:27:46.807Z,69.50
2017-11-01T08:28:46.786Z,82.50
2017-11-01T08:29:47.011Z,83.20
2017-11-01T08:30:46.738Z,67.60
2017-11-01T08:31:46.711Z,73.70
2017-11-01T08:32:46.684Z,64.80
2017-11-01T08:33:46.653Z,76.40
2017-11-01T08:34:46.630Z,68.40
2017-11-01T08:35:46.960Z,52.30
2017-11-01T08:36:46.576Z,67.60
2017-11-01T08:37:46.558Z,81.90
2017-11-01T08:38:46.531Z,77.20
2017-11-01T08:39:46.500Z,64.50
2017-11-01T08:40:46.476Z,66.30
2017-11-01T08:41:46.450Z,68.70
2017-11-01T08:42:46.438Z,66.90
2017-11-01T08:43:46.410Z,61.80
2017-11-01T08:44:46.381Z,62.80
2017-11-01T08:45:46.358Z,67.50
2017-11-01T08:46:46.329Z,75.00
2017-11-01T08:47:46.551Z,69.60
2017-11-01T08:48:46.285Z,66.20
2017-11-01T08:49:46.250Z,52.90
2017-11-01T08:50:46.223Z,63.60
2017-11-01T08:51:46.196Z,62.20
2017-11-01T08:52:46.179Z,67.80
2017-11-01T08:53:46.151Z,70.00
2017-11-01T08:54:46.118Z,73.60
2017-11-01T08:55:46.098Z,59.40
2017-11-01T08:56:46.072Z,63.40
2017-11-01T08:57:46.046Z,65.30
2017-11-01T08:58:46.023Z,67.20
2017-11-01T08:59:45.994Z,63.60
2017-11-01T09:00:45.971Z,70.20
2017-11-01T09:01:45.946Z,61.40
2017-11-01T09:02:45.930Z,67.60
2017-11-01T09:03:45.903Z,49.30
2017-11-01T09:04:46.116Z,67.70
2017-11-01T09:05:45.849Z,51.10
2017-11-01T09:06:45.819Z,66.30
2017-11-01T09:07:45.793Z,60.60
2017-11-01T09:08:45.774Z,63.10
2017-11-01T09:09:45.751Z,43.30
2017-11-01T09:10:45.718Z,50.60
2017-11-01T09:11:45.702Z,61.70
2017-11-01T09:12:45.664Z,61.00
2017-11-01T09:13:45.648Z,57.70
2017-11-01T09:14:45.622Z,51.10
2017-11-01T09:15:45.597Z,61.10
2017-11-01T09:16:45.818Z,50.70
2017-11-01T09:17:45.544Z,45.30
2017-11-01T09:18:45.515Z,54.10
2017-11-01T09:19:45.486Z,45.90
2017-11-01T09:20:45.465Z,59.90
2017-11-01T09:21:45.438Z,60.80
2017-11-01T09:22:45.411Z,57.10
2017-11-01T09:23:45.393Z,53.00
2017-11-01T09:24:45.364Z,53.80
2017-11-01T09:25:45.342Z,59.90
2017-11-01T09:26:45.320Z,64.60
2017-11-01T09:27:45.299Z,53.40
2017-11-01T09:28:45.267Z,52.20
2017-11-01T09:29:45.245Z,54.20
2017-11-01T09:30:45.222Z,49.10
2017-11-01T09:31:45.185Z,60.90
2017-11-01T09:32:45.174Z,64.80
2017-11-01T09:33:45.150Z,59.60
2017-11-01T09:34:45.368Z,62.50
2017-11-01T09:35:45.085Z,61.20
2017-11-01T09:36:45.062Z,54.60
2017-11-01T09:37:45.043Z,58.50
2017-11-01T09:38:45.014Z,56.70
2017-11-01T09:39:44.986Z,43.60
2017-11-01T09:40:44.964Z,57.10
2017-11-01T09:41:44.941Z,53.60
2017-11-01T09:42:44.908Z,58.00
2017-11-01T09:43:44.889Z,52.00
2017-11-01T09:44:44.873Z,50.70
2017-11-01T09:45:44.844Z,56.30
2017-11-01T09:46:44.810Z,49.50
2017-11-01T09:47:44.792Z,46.30
2017-11-01T09:48:44.764Z,45.40
2017-11-01T09:49:44.737Z,54.50
2017-11-01T09:50:44.725Z,46.50
2017-11-01T09:51:44.970Z,53.80
2017-11-01T09:52:44.664Z,50.90
2017-11-01T09:53:44.656Z,51.00
2017-11-01T09:54:44.609Z,42.20
2017-11-01T09:55:44.603Z,42.10
2017-11-01T09:56:44.564Z,52.90
2017-11-01T09:57:44.560Z,46.80
2017-11-01T09:58:44.513Z,50.00
2017-11-01T09:59:44.501Z,55.10
2017-11-01T10:00:44.468Z,48.20
2017-11-01T10:01:44.445Z,56.70
2017-11-01T10:02:44.416Z,51.40
2017-11-01T10:03:44.391Z,46.30
2017-11-01T10:04:44.365Z,43.20
2017-11-01T10:05:44.344Z,38.40
2017-11-01T10:06:44.317Z,47.70
2017-11-01T10:07:44.289Z,48.70
2017-11-01T10:08:44.269Z,50.90
2017-11-01T10:09:44.243Z,52.00
2017-11-01T10:10:44.213Z,53.60
2017-11-01T10:11:44.185Z,52.90
2017-11-01T10:12:44.166Z,49.00
2017-11-01T10:13:44.154Z,50.20
2017-11-01T10:14:44.115Z,49.80
2017-11-01T10:15:44.092Z,50.70
2017-11-01T10:16:44.063Z,46.20
2017-11-01T10:17:44.040Z,50.90
2017-11-01T10:18:44.014Z,53.30
2017-11-01T10:19:43.996Z,49.40
2017-11-01T10:20:43.962Z,55.00
2017-11-01T10:21:43.944Z,42.40
2017-11-01T10:22:43.920Z,49.10
2017-11-01T10:23:43.890Z,47.30
2017-11-01T10:24:43.866Z,51.50
2017-11-01T10:25:43.842Z,58.10
2017-11-01T10:26:43.814Z,56.30
2017-11-01T10:27:43.789Z,49.30
2017-11-01T10:28:43.771Z,59.10
2017-11-01T10:29:43.751Z,42.20
2017-11-01T10:30:43.711Z,47.50
2017-11-01T10:31:43.693Z,50.30
2017-11-01T10:32:43.665Z,50.40
2017-11-01T10:33:43.637Z,51.10
2017-11-01T10:34:43.623Z,54.30
2017-11-01T10:35:43.596Z,50.30
2017-11-01T10:36:43.591Z,55.20
2017-11-01T10:37:43.541Z,50.00
2017-11-01T10:38:43.519Z,44.90
2017-11-01T10:39:43.496Z,54.60
2017-11-01T10:40:43.470Z,47.90
2017-11-01T10:41:43.446Z,55.20
2017-11-01T10:42:43.418Z,44.70
2017-11-01T10:43:43.392Z,48.30
2017-11-01T10:44:43.365Z,54.00
2017-11-01T10:45:43.339Z,46.20
2017-11-01T10:46:43.320Z,46.10
2017-11-01T10:47:43.291Z,56.50
2017-11-01T10:48:43.268Z,47.50
2017-11-01T10:49:43.246Z,50.00
2017-11-01T10:50:43.223Z,41.70
2017-11-01T10:51:43.192Z,46.60
2017-11-01T10:52:43.171Z,48.90
2017-11-01T10:53:43.145Z,44.10
2017-11-01T10:54:43.119Z,47.20
2017-11-01T10:55:43.093Z,50.00
2017-11-01T10:56:43.065Z,44.90
2017-11-01T10:57:43.049Z,49.90
2017-11-01T10:58:43.024Z,48.60
2017-11-01T10:59:42.994Z,47.90
2017-11-01T11:00:42.973Z,48.50
2017-11-01T11:01:42.957Z,48.60
2017-11-01T11:02:43.177Z,47.80
2017-11-01T11:03:42.893Z,50.40
2017-11-01T11:04:42.870Z,52.80
2017-11-01T11:05:42.850Z,54.90
2017-11-01T11:06:42.823Z,60.70
2017-11-01T11:07:42.795Z,48.60
2017-11-01T11:08:42.773Z,50.90
2017-11-01T11:09:42.745Z,51.00
2017-11-01T11:10:42.722Z,56.50
2017-11-01T11:11:42.703Z,56.30
2017-11-01T11:12:42.672Z,55.90
2017-11-01T11:13:42.655Z,58.40
2017-11-01T11:14:42.624Z,49.30
2017-11-01T11:15:42.604Z,49.30
2017-11-01T11:16:42.581Z,55.10
2017-11-01T11:17:42.555Z,55.90
2017-11-01T11:18:42.525Z,54.00
2017-11-01T11:19:42.502Z,48.70
2017-11-01T11:20:42.514Z,59.00
2017-11-01T11:21:42.456Z,44.40
2017-11-01T11:22:42.428Z,48.80
2017-11-01T11:23:42.405Z,51.90
2017-11-01T11:24:42.383Z,52.40
2017-11-01T11:25:42.353Z,60.10
2017-11-01T11:26:42.326Z,59.10
2017-11-01T11:27:42.302Z,53.00
2017-11-01T11:28:42.279Z,65.30
2017-11-01T11:29:42.250Z,57.40
2017-11-01T11:30:42.224Z,58.30
2017-11-01T11:31:42.203Z,63.70
2017-11-01T11:32:42.183Z,61.30
2017-11-01T11:33:42.155Z,54.80
2017-11-01T11:34:42.134Z,55.50
2017-11-01T11:35:42.109Z,60.90
2017-11-01T11:36:42.079Z,57.80
2017-11-01T11:37:42.055Z,59.60
2017-11-01T11:38:42.034Z,57.00
2017-11-01T11:39:42.010Z,67.60
2017-11-01T11:40:41.984Z,57.50
2017-11-01T11:41:41.966Z,71.00
2017-11-01T11:42:41.936Z,57.20
2017-11-01T11:43:41.907Z,52.10
2017-11-01T11:44:41.886Z,71.40
2017-11-01T11:45:41.857Z,68.40
2017-11-01T11:46:41.836Z,62.60
2017-11-01T11:47:41.812Z,60.70
2017-11-01T11:48:41.791Z,57.90
2017-11-01T11:49:41.754Z,72.30
2017-11-01T11:50:41.740Z,68.80
2017-11-01T11:51:41.705Z,73.80
2017-11-01T11:52:41.684Z,74.00
2017-11-01T11:53:41.660Z,69.90
2017-11-01T11:54:41.635Z,52.40
2017-11-01T11:55:41.626Z,65.10
2017-11-01T11:56:41.586Z,75.30
2017-11-01T11:57:41.557Z,84.10
2017-11-01T11:58:41.534Z,66.90
2017-11-01T11:59:41.503Z,63.60
2017-11-01T12:00:41.486Z,69.70
2017-11-01T12:01:41.464Z,68.80
2017-11-01T12:02:41.431Z,74.00
2017-11-01T12:03:41.406Z,66.40
2017-11-01T12:04:41.383Z,62.70
2017-11-01T12:05:41.364Z,54.30
2017-11-01T12:06:41.336Z,81.30
2017-11-01T12:07:41.303Z,72.40
2017-11-01T12:08:41.288Z,62.50
2017-11-01T12:09:41.257Z,73.40
2017-11-01T12:10:41.238Z,52.70
2017-11-01T12:11:41.213Z,62.30
2017-11-01T12:12:41.188Z,68.30
2017-11-01T12:13:41.165Z,60.40
2017-11-01T12:14:41.146Z,73.90
2017-11-01T12:15:41.114Z,58.60
2017-11-01T12:16:41.089Z,70.20
2017-11-01T12:17:41.063Z,63.20
2017-11-01T12:18:41.037Z,64.70
2017-11-01T12:19:41.010Z,59.00
2017-11-01T12:20:40.994Z,64.20
2017-11-01T12:21:40.965Z,62.70
2017-11-01T12:22:40.949Z,71.90
2017-11-01T12:23:40.930Z,72.30
2017-11-01T12:24:40.910Z,69.80
2017-11-01T12:25:40.876Z,57.90
2017-11-01T12:26:40.840Z,67.90
2017-11-01T12:27:40.818Z,69.00
2017-11-01T12:28:40.826Z,67.00
2017-11-01T12:29:40.772Z,60.60
2017-11-01T12:30:40.748Z,73.50
2017-11-01T12:31:40.717Z,67.40
2017-11-01T12:32:40.692Z,67.70
2017-11-01T12:33:40.670Z,62.20
2017-11-01T12:34:40.645Z,73.30
2017-11-01T12:35:40.626Z,64.10
2017-11-01T12:36:40.601Z,64.20
2017-11-01T12:37:40.578Z,68.80
2017-11-01T12:38:40.549Z,61.20
2017-11-01T12:39:40.537Z,60.00
2017-11-01T12:40:40.497Z,60.40
2017-11-01T12:41:40.475Z,63.20
2017-11-01T12:42:40.451Z,53.90